createdAt,value
2022-09-06T00:00:59.976Z,21.17
2022-09-06T00:03:29.863Z,21.28
2022-09-06T00:05:56.746Z,21.24
2022-09-06T00:08:23.791Z,21.18
2022-09-06T00:11:01.063Z,21.17
2022-09-06T00:13:28.416Z,21.12
2022-09-06T00:15:55.373Z,21.08
2022-09-06T00:18:22.422Z,21.04
2022-09-06T00:20:49.388Z,21.00
2022-09-06T00:23:16.273Z,20.97
2022-09-06T00:25:43.200Z,20.93
2022-09-06T00:28:10.061Z,20.88
2022-09-06T00:30:36.949Z,20.86
2022-09-06T00:33:04.039Z,20.83
2022-09-06T00:35:30.955Z,20.80
2022-09-06T00:37:59.010Z,20.79
2022-09-06T00:40:26.609Z,20.75
2022-09-06T00:42:53.528Z,20.70
2022-09-06T00:45:20.449Z,20.68
2022-09-06T00:47:47.436Z,20.65
2022-09-06T00:50:15.255Z,20.48
2022-09-06T00:52:42.417Z,20.60
2022-09-06T00:55:09.530Z,20.58
2022-09-06T00:57:36.433Z,20.54
2022-09-06T01:00:04.927Z,20.52
2022-09-06T01:02:31.893Z,20.49
2022-09-06T01:04:58.884Z,20.48
2022-09-06T01:07:37.716Z,20.45
2022-09-06T01:10:30.616Z,20.40
2022-09-06T01:13:00.203Z,20.35
2022-09-06T01:16:11.518Z,20.32
2022-09-06T01:18:56.843Z,20.26
2022-09-06T01:21:58.157Z,20.22
2022-09-06T01:24:36.966Z,20.18
2022-09-06T01:27:34.771Z,20.14
2022-09-06T01:30:06.667Z,20.10
2022-09-06T01:32:51.942Z,19.96
2022-09-06T01:35:48.080Z,20.06
2022-09-06T01:38:15.035Z,19.72
2022-09-06T01:40:41.914Z,19.98
2022-09-06T01:43:11.259Z,19.94
2022-09-06T01:45:44.036Z,19.94
2022-09-06T01:48:48.481Z,19.92
2022-09-06T01:51:21.771Z,19.87
2022-09-06T01:53:55.881Z,19.85
2022-09-06T01:56:28.645Z,19.83
2022-09-06T01:59:13.183Z,19.81
2022-09-06T02:02:01.751Z,19.78
2022-09-06T02:04:49.465Z,19.75
2022-09-06T02:07:25.619Z,19.73
2022-09-06T02:10:00.501Z,19.71
2022-09-06T02:12:27.951Z,19.65
2022-09-06T02:15:07.717Z,19.66
2022-09-06T02:17:35.745Z,19.45
2022-09-06T02:20:07.267Z,19.60
2022-09-06T02:22:37.716Z,19.58
2022-09-06T02:25:05.371Z,19.38
2022-09-06T02:27:32.268Z,19.51
2022-09-06T02:29:59.154Z,19.49
2022-09-06T02:32:26.397Z,19.18
2022-09-06T02:34:54.620Z,19.27
2022-09-06T02:37:21.473Z,19.38
2022-09-06T02:39:48.398Z,19.36
2022-09-06T02:42:15.667Z,19.32
2022-09-06T02:44:42.520Z,19.31
2022-09-06T02:47:09.419Z,19.18
2022-09-06T02:49:36.364Z,19.26
2022-09-06T02:52:03.420Z,19.27
2022-09-06T02:54:31.273Z,19.24
2022-09-06T02:56:58.203Z,19.23
2022-09-06T02:59:25.073Z,19.20
2022-09-06T03:01:51.926Z,19.17
2022-09-06T03:04:18.869Z,19.14
2022-09-06T03:06:45.754Z,19.11
2022-09-06T03:09:12.629Z,19.08
2022-09-06T03:11:39.551Z,19.06
2022-09-06T03:14:06.514Z,19.03
2022-09-06T03:16:33.514Z,19.00
2022-09-06T03:19:00.454Z,18.97
2022-09-06T03:21:27.338Z,18.95
2022-09-06T03:23:54.804Z,18.91
2022-09-06T03:26:21.799Z,18.88
2022-09-06T03:28:49.701Z,18.84
2022-09-06T03:31:16.625Z,18.81
2022-09-06T03:33:43.572Z,18.81
2022-09-06T03:36:10.486Z,18.77
2022-09-06T03:38:37.376Z,18.78
2022-09-06T03:41:04.568Z,18.85
2022-09-06T03:43:32.392Z,18.97
2022-09-06T03:46:00.033Z,18.96
2022-09-06T03:48:28.825Z,19.27
2022-09-06T03:50:56.670Z,19.42
2022-09-06T03:53:24.223Z,19.58
2022-09-06T03:55:52.517Z,19.69
2022-09-06T03:58:20.521Z,19.73
2022-09-06T04:00:47.674Z,19.78
2022-09-06T04:03:14.936Z,19.97
2022-09-06T04:05:46.331Z,20.13
2022-09-06T04:08:13.832Z,20.23
2022-09-06T04:10:42.271Z,20.48
2022-09-06T04:13:09.258Z,20.61
2022-09-06T04:15:37.172Z,20.75
2022-09-06T04:18:08.978Z,20.87
2022-09-06T04:20:36.530Z,21.00
2022-09-06T04:23:04.099Z,21.11
2022-09-06T04:25:31.109Z,21.21
2022-09-06T04:27:58.227Z,21.30
2022-09-06T04:30:25.309Z,21.28
2022-09-06T04:32:52.526Z,21.29
2022-09-06T04:35:19.492Z,21.34
2022-09-06T04:37:46.507Z,21.42
2022-09-06T04:40:13.675Z,21.54
2022-09-06T04:42:40.739Z,21.62
2022-09-06T04:45:08.264Z,21.72
2022-09-06T04:47:35.563Z,21.81
2022-09-06T04:50:02.507Z,21.91
2022-09-06T04:52:30.318Z,21.99
2022-09-06T04:54:57.688Z,22.09
2022-09-06T04:57:24.882Z,22.12
2022-09-06T04:59:51.855Z,22.12
2022-09-06T05:02:18.929Z,22.16
2022-09-06T05:04:46.057Z,22.23
2022-09-06T05:07:12.998Z,22.29
2022-09-06T05:09:40.116Z,22.37
2022-09-06T05:12:08.022Z,22.46
2022-09-06T05:14:35.059Z,22.56
2022-09-06T05:17:02.353Z,22.44
2022-09-06T05:19:29.281Z,22.73
2022-09-06T05:21:56.509Z,22.82
2022-09-06T05:24:23.614Z,22.90
2022-09-06T05:26:50.739Z,22.97
2022-09-06T05:29:17.679Z,23.07
2022-09-06T05:31:45.018Z,23.15
2022-09-06T05:34:13.593Z,23.23
2022-09-06T05:36:42.128Z,23.30
2022-09-06T05:39:09.348Z,23.38
2022-09-06T05:41:36.308Z,23.27
2022-09-06T05:44:03.849Z,23.54
2022-09-06T05:46:31.036Z,23.59
2022-09-06T05:49:07.986Z,23.59
2022-09-06T05:51:35.062Z,23.74
2022-09-06T05:54:02.106Z,23.86
2022-09-06T05:56:29.337Z,23.92
2022-09-06T05:58:56.439Z,24.01
2022-09-06T06:01:29.216Z,23.99
2022-09-06T06:04:00.846Z,24.19
2022-09-06T06:06:29.607Z,24.18
2022-09-06T06:08:56.926Z,24.13
2022-09-06T06:11:24.388Z,24.09
2022-09-06T06:13:51.921Z,23.92
2022-09-06T06:16:20.594Z,24.00
2022-09-06T06:18:52.004Z,23.81
2022-09-06T06:21:22.737Z,23.93
2022-09-06T06:23:51.360Z,23.87
2022-09-06T06:26:18.493Z,23.91
2022-09-06T06:28:45.708Z,23.87
2022-09-06T06:31:13.135Z,23.80
2022-09-06T06:33:40.383Z,23.70
2022-09-06T06:36:08.194Z,23.78
2022-09-06T06:38:37.625Z,23.75
2022-09-06T06:41:06.983Z,23.72
2022-09-06T06:43:37.952Z,23.68
2022-09-06T06:46:15.469Z,23.62
2022-09-06T06:48:43.765Z,23.59
2022-09-06T06:51:20.020Z,23.57
2022-09-06T06:53:47.656Z,23.52
2022-09-06T06:56:21.531Z,23.50
2022-09-06T06:58:49.938Z,23.46
2022-09-06T07:01:17.543Z,23.44
2022-09-06T07:03:44.734Z,23.39
2022-09-06T07:06:12.498Z,23.37
2022-09-06T07:08:40.468Z,23.34
2022-09-06T07:11:07.949Z,23.32
2022-09-06T07:13:35.117Z,23.27
2022-09-06T07:16:08.847Z,23.27
2022-09-06T07:18:36.439Z,23.11
2022-09-06T07:24:06.967Z,22.80
2022-09-06T07:26:34.975Z,22.33
2022-09-06T07:29:03.488Z,22.25
2022-09-06T07:34:20.699Z,21.76
2022-09-06T07:36:48.462Z,21.64
2022-09-06T07:39:15.589Z,21.57
2022-09-06T07:41:43.087Z,21.60
2022-09-06T07:44:10.380Z,21.55
2022-09-06T07:46:37.470Z,21.51
2022-09-06T07:49:05.469Z,21.49
2022-09-06T07:51:32.607Z,21.40
2022-09-06T07:54:26.436Z,21.33
2022-09-06T07:56:46.876Z,21.39
2022-09-06T07:59:13.875Z,21.38
2022-09-06T08:01:40.960Z,21.40
2022-09-06T08:04:12.941Z,21.40
2022-09-06T08:09:35.474Z,21.37
2022-09-06T08:12:08.656Z,21.38
2022-09-06T08:14:35.729Z,21.38
2022-09-06T08:19:29.785Z,21.39
2022-09-06T08:21:56.902Z,21.40
2022-09-06T08:24:23.853Z,21.27
2022-09-06T08:26:50.917Z,21.43
2022-09-06T08:29:18.983Z,21.46
2022-09-06T08:31:46.148Z,21.51
2022-09-06T08:34:14.328Z,21.56
2022-09-06T08:36:41.606Z,21.63
2022-09-06T08:39:11.679Z,21.64
2022-09-06T08:41:47.786Z,21.72
2022-09-06T08:47:07.156Z,21.85
2022-09-06T08:49:37.039Z,21.73
2022-09-06T08:52:24.145Z,21.97
2022-09-06T08:55:09.828Z,22.01
2022-09-06T08:58:10.413Z,22.10
2022-09-06T09:00:37.458Z,22.13
2022-09-06T09:03:07.194Z,22.19
2022-09-06T09:05:35.036Z,22.24
2022-09-06T09:08:17.904Z,22.29
2022-09-06T09:10:48.715Z,22.38
2022-09-06T09:13:40.752Z,22.44
2022-09-06T09:16:07.849Z,22.37
2022-09-06T09:18:40.390Z,22.33
2022-09-06T09:21:07.364Z,22.49
2022-09-06T09:23:34.461Z,22.60
2022-09-06T09:26:12.430Z,22.69
2022-09-06T09:28:39.363Z,22.75
2022-09-06T09:31:07.349Z,22.84
2022-09-06T09:33:36.908Z,22.90
2022-09-06T09:36:13.266Z,22.97
2022-09-06T09:38:44.614Z,23.01
2022-09-06T09:41:24.227Z,23.04
2022-09-06T09:44:03.698Z,23.09
2022-09-06T09:46:33.341Z,22.95
2022-09-06T09:49:04.535Z,22.82
2022-09-06T09:51:33.154Z,23.07
2022-09-06T09:54:10.756Z,23.23
2022-09-06T09:56:49.827Z,23.55
2022-09-06T09:59:22.662Z,23.68
2022-09-06T10:01:49.866Z,23.78
2022-09-06T10:04:47.212Z,23.90
2022-09-06T10:07:21.531Z,24.00
2022-09-06T10:09:57.711Z,24.06
2022-09-06T10:12:31.711Z,24.17
2022-09-06T10:15:01.251Z,24.24
2022-09-06T10:17:34.622Z,24.33
2022-09-06T10:20:11.698Z,24.43
2022-09-06T10:22:44.103Z,24.49
2022-09-06T10:25:29.710Z,24.57
2022-09-06T10:28:33.123Z,24.64
2022-09-06T10:31:12.392Z,24.71
2022-09-06T10:34:16.882Z,24.76
2022-09-06T10:37:01.706Z,24.63
2022-09-06T10:39:50.379Z,24.81
2022-09-06T10:42:39.202Z,24.80
2022-09-06T10:45:21.918Z,24.81
2022-09-06T10:48:02.974Z,24.83
2022-09-06T10:50:44.100Z,24.86
2022-09-06T10:53:14.217Z,24.90
2022-09-06T10:55:41.244Z,24.90
2022-09-06T10:58:18.273Z,24.79
2022-09-06T11:00:47.495Z,24.99
2022-09-06T11:06:10.396Z,24.69
2022-09-06T11:09:02.857Z,24.90
2022-09-06T11:11:51.359Z,24.95
2022-09-06T11:14:18.325Z,25.01
2022-09-06T11:17:28.575Z,25.11
2022-09-06T11:20:06.951Z,25.21
2022-09-06T11:22:59.532Z,25.29
2022-09-06T11:26:14.654Z,25.35
2022-09-06T11:29:04.855Z,25.36
2022-09-06T11:34:31.441Z,25.37
2022-09-06T11:37:02.686Z,25.37
2022-09-06T11:42:45.596Z,25.38
2022-09-06T11:45:16.135Z,25.40
2022-09-06T11:47:48.243Z,25.43
2022-09-06T11:50:21.395Z,25.47
2022-09-06T11:53:07.365Z,25.51
2022-09-06T11:55:38.211Z,25.52
2022-09-06T11:58:12.279Z,25.56
2022-09-06T12:00:39.249Z,25.55
2022-09-06T12:06:19.217Z,25.54
2022-09-06T12:08:50.236Z,25.60
2022-09-06T12:11:30.295Z,25.61
2022-09-06T12:14:03.857Z,25.65
2022-09-06T12:16:55.712Z,25.66
2022-09-06T12:19:47.255Z,25.61
2022-09-06T12:22:29.541Z,25.61
2022-09-06T12:25:21.032Z,25.54
2022-09-06T12:27:56.146Z,25.45
2022-09-06T12:30:43.823Z,25.45
2022-09-06T12:33:39.428Z,25.56
2022-09-06T12:36:19.959Z,25.65
2022-09-06T12:39:09.957Z,25.64
2022-09-06T12:41:43.296Z,25.87
2022-09-06T12:44:11.092Z,25.97
2022-09-06T12:46:40.055Z,26.06
2022-09-06T12:49:08.879Z,26.13
2022-09-06T12:51:36.756Z,26.12
2022-09-06T12:54:22.235Z,26.18
2022-09-06T12:56:49.589Z,26.23
2022-09-06T12:59:20.493Z,26.27
2022-09-06T13:02:08.384Z,26.32
2022-09-06T13:04:49.602Z,26.23
2022-09-06T13:07:17.867Z,26.38
2022-09-06T13:09:47.266Z,26.41
2022-09-06T13:12:27.483Z,26.44
2022-09-06T13:14:58.217Z,26.31
2022-09-06T13:17:26.475Z,26.47
2022-09-06T13:19:53.682Z,26.51
2022-09-06T13:22:45.962Z,26.58
2022-09-06T13:25:21.006Z,26.62
2022-09-06T13:27:56.581Z,26.62
2022-09-06T13:30:37.068Z,26.65
2022-09-06T13:33:05.328Z,26.74
2022-09-06T13:35:34.573Z,26.84
2022-09-06T13:38:32.429Z,26.98
2022-09-06T13:41:12.521Z,27.07
2022-09-06T13:43:48.795Z,27.17
2022-09-06T13:46:16.164Z,27.25
2022-09-06T13:48:44.776Z,27.32
2022-09-06T13:51:12.092Z,27.40
2022-09-06T13:53:39.026Z,27.47
2022-09-06T13:56:08.584Z,27.45
2022-09-06T13:58:36.387Z,27.57
2022-09-06T14:01:04.183Z,27.64
2022-09-06T14:03:31.762Z,27.68
2022-09-06T14:06:00.371Z,27.74
2022-09-06T14:08:49.287Z,27.80
2022-09-06T14:11:17.948Z,27.82
2022-09-06T14:13:44.921Z,27.88
2022-09-06T14:16:12.030Z,27.93
2022-09-06T14:18:39.131Z,27.98
2022-09-06T14:21:07.262Z,28.02
2022-09-06T14:23:34.189Z,28.05
2022-09-06T14:26:02.419Z,28.10
2022-09-06T14:28:31.163Z,28.13
2022-09-06T14:30:58.172Z,28.17
2022-09-06T14:33:25.191Z,28.20
2022-09-06T14:35:52.398Z,28.22
2022-09-06T14:38:19.687Z,28.15
2022-09-06T14:40:46.596Z,28.16
2022-09-06T14:43:13.610Z,28.20
2022-09-06T14:45:40.540Z,28.31
2022-09-06T14:48:07.699Z,28.34
2022-09-06T14:50:34.589Z,28.35
2022-09-06T14:53:02.071Z,28.38
2022-09-06T14:55:30.265Z,28.38
2022-09-06T14:57:57.950Z,28.34
2022-09-06T15:00:25.239Z,28.44
2022-09-06T15:02:52.538Z,28.47
2022-09-06T15:05:19.434Z,28.48
2022-09-06T15:07:46.696Z,28.51
2022-09-06T15:10:13.669Z,28.53
2022-09-06T15:12:40.528Z,28.56
2022-09-06T15:15:07.660Z,28.59
2022-09-06T15:17:35.218Z,28.62
2022-09-06T15:20:02.322Z,28.63
2022-09-06T15:22:29.898Z,28.66
2022-09-06T15:24:56.859Z,28.68
2022-09-06T15:27:23.806Z,28.70
2022-09-06T15:29:50.871Z,28.72
2022-09-06T15:32:17.904Z,28.73
2022-09-06T15:34:44.862Z,28.75
2022-09-06T15:37:11.737Z,28.76
2022-09-06T15:39:38.725Z,28.77
2022-09-06T15:42:06.046Z,28.78
2022-09-06T15:44:33.294Z,28.77
2022-09-06T15:47:00.357Z,28.80
2022-09-06T15:49:28.873Z,28.78
2022-09-06T15:51:57.043Z,28.81
2022-09-06T15:54:42.596Z,28.82
2022-09-06T15:57:09.545Z,28.80
2022-09-06T15:59:36.593Z,28.82
2022-09-06T16:02:03.638Z,28.83
2022-09-06T16:04:30.538Z,28.85
2022-09-06T16:06:57.482Z,28.86
2022-09-06T16:09:24.430Z,28.86
2022-09-06T16:11:51.305Z,28.87
2022-09-06T16:14:18.363Z,28.88
2022-09-06T16:16:45.667Z,28.89
2022-09-06T16:19:12.761Z,28.91
2022-09-06T16:21:40.680Z,28.92
2022-09-06T16:24:09.226Z,28.94
2022-09-06T16:26:38.418Z,28.93
2022-09-06T16:29:05.925Z,28.92
2022-09-06T16:31:40.059Z,28.92
2022-09-06T16:34:10.549Z,28.89
2022-09-06T16:36:37.518Z,28.88
2022-09-06T16:39:04.937Z,28.87
2022-09-06T16:41:39.578Z,28.88
2022-09-06T16:44:07.663Z,28.87
2022-09-06T16:46:34.792Z,28.87
2022-09-06T16:49:02.969Z,28.87
2022-09-06T16:51:31.160Z,28.87
2022-09-06T16:53:58.265Z,28.86
2022-09-06T16:56:26.735Z,28.85
2022-09-06T16:58:55.075Z,28.82
2022-09-06T17:01:22.441Z,28.80
2022-09-06T17:03:49.795Z,28.81
2022-09-06T17:06:16.907Z,28.79
2022-09-06T17:08:44.002Z,28.68
2022-09-06T17:11:14.791Z,28.77
2022-09-06T17:13:41.949Z,28.75
2022-09-06T17:16:27.525Z,28.72
2022-09-06T17:18:54.565Z,28.62
2022-09-06T17:21:22.040Z,28.68
2022-09-06T17:23:49.604Z,28.66
2022-09-06T17:26:17.543Z,28.65
2022-09-06T17:28:44.464Z,28.63
2022-09-06T17:31:12.110Z,28.60
2022-09-06T17:33:39.135Z,28.58
2022-09-06T17:36:13.588Z,28.56
2022-09-06T17:38:41.126Z,28.52
2022-09-06T17:41:08.150Z,28.51
2022-09-06T17:43:38.233Z,28.49
2022-09-06T17:46:05.369Z,28.46
2022-09-06T17:48:32.331Z,28.44
2022-09-06T17:51:06.938Z,28.41
2022-09-06T17:53:34.513Z,28.37
2022-09-06T17:56:09.119Z,28.34
2022-09-06T17:58:36.724Z,28.29
2022-09-06T18:01:08.072Z,28.26
2022-09-06T18:03:35.095Z,28.21
2022-09-06T18:06:03.638Z,28.19
2022-09-06T18:08:30.954Z,28.14
2022-09-06T18:10:57.913Z,28.08
2022-09-06T18:13:24.795Z,28.07
2022-09-06T18:15:51.701Z,28.03
2022-09-06T18:18:18.629Z,28.00
2022-09-06T18:20:45.515Z,27.95
2022-09-06T18:23:12.434Z,27.89
2022-09-06T18:25:39.337Z,27.86
2022-09-06T18:28:06.518Z,27.83
2022-09-06T18:30:33.515Z,27.79
2022-09-06T18:33:00.452Z,27.76
2022-09-06T18:35:27.483Z,27.70
2022-09-06T18:37:54.678Z,27.67
2022-09-06T18:40:21.592Z,27.62
2022-09-06T18:42:48.644Z,27.56
2022-09-06T18:45:15.534Z,27.53
2022-09-06T18:47:43.686Z,27.48
2022-09-06T18:50:10.637Z,27.43
2022-09-06T18:52:38.466Z,27.37
2022-09-06T18:55:05.966Z,27.33
2022-09-06T18:57:32.999Z,27.28
2022-09-06T18:59:59.926Z,27.21
2022-09-06T19:02:27.953Z,27.16
2022-09-06T19:04:56.083Z,27.10
2022-09-06T19:07:23.111Z,27.04
2022-09-06T19:09:50.133Z,26.97
2022-09-06T19:12:17.070Z,26.92
2022-09-06T19:14:44.050Z,26.87
2022-09-06T19:17:11.048Z,26.84
2022-09-06T19:19:38.192Z,26.80
2022-09-06T19:22:05.763Z,26.75
2022-09-06T19:24:33.682Z,26.70
2022-09-06T19:27:02.011Z,26.67
2022-09-06T19:29:30.406Z,26.62
2022-09-06T19:31:59.317Z,26.58
2022-09-06T19:34:26.951Z,26.53
2022-09-06T19:36:55.514Z,26.50
2022-09-06T19:39:22.845Z,26.45
2022-09-06T19:41:50.643Z,26.41
2022-09-06T19:44:17.680Z,26.36
2022-09-06T19:46:46.981Z,26.22
2022-09-06T19:49:19.162Z,26.25
2022-09-06T19:51:48.216Z,26.19
2022-09-06T19:54:15.581Z,26.14
2022-09-06T19:56:43.658Z,26.08
2022-09-06T19:59:12.197Z,26.03
2022-09-06T20:01:39.938Z,25.98
2022-09-06T20:04:07.934Z,25.93
2022-09-06T20:06:35.198Z,25.86
2022-09-06T20:09:02.682Z,25.86
2022-09-06T20:11:30.625Z,25.82
2022-09-06T20:13:57.615Z,25.65
2022-09-06T20:16:24.914Z,25.74
2022-09-06T20:18:52.527Z,25.72
2022-09-06T20:21:19.606Z,25.67
2022-09-06T20:23:50.218Z,25.63
2022-09-06T20:26:17.515Z,25.60
2022-09-06T20:28:44.584Z,25.54
2022-09-06T20:31:16.478Z,25.52
2022-09-06T20:33:48.716Z,25.48
2022-09-06T20:36:16.906Z,25.41
2022-09-06T20:38:44.229Z,25.38
2022-09-06T20:41:16.039Z,25.32
2022-09-06T20:43:43.264Z,25.26
2022-09-06T20:46:17.168Z,25.20
2022-09-06T20:48:45.474Z,25.14
2022-09-06T20:51:14.894Z,25.11
2022-09-06T20:53:41.871Z,25.07
2022-09-06T20:56:33.909Z,25.05
2022-09-06T20:59:02.616Z,25.00
2022-09-06T21:01:35.847Z,24.92
2022-09-06T21:04:04.498Z,24.80
2022-09-06T21:06:33.795Z,24.88
2022-09-06T21:09:00.866Z,24.85
2022-09-06T21:11:27.930Z,24.82
2022-09-06T21:13:56.337Z,24.73
2022-09-06T21:16:25.501Z,24.74
2022-09-06T21:18:53.198Z,24.70
2022-09-06T21:21:20.156Z,24.66
2022-09-06T21:23:47.093Z,24.63
2022-09-06T21:26:15.930Z,24.60
2022-09-06T21:28:43.098Z,24.56
2022-09-06T21:31:11.919Z,24.51
2022-09-06T21:33:40.660Z,24.38
2022-09-06T21:36:12.056Z,24.44
2022-09-06T21:38:40.957Z,24.39
2022-09-06T21:41:08.374Z,24.33
2022-09-06T21:43:35.346Z,24.28
2022-09-06T21:46:03.147Z,24.23
2022-09-06T21:48:30.212Z,24.17
2022-09-06T21:50:57.467Z,24.14
2022-09-06T21:53:26.579Z,24.11
2022-09-06T21:55:53.423Z,24.09
2022-09-06T21:58:20.455Z,24.06
2022-09-06T22:00:51.978Z,24.04
2022-09-06T22:03:19.106Z,24.01
2022-09-06T22:05:46.220Z,23.97
2022-09-06T22:08:13.363Z,23.94
2022-09-06T22:10:40.278Z,23.91
2022-09-06T22:13:07.184Z,23.87
2022-09-06T22:15:37.978Z,23.84
2022-09-06T22:18:05.251Z,23.80
2022-09-06T22:20:32.181Z,23.76
2022-09-06T22:22:59.150Z,23.72
2022-09-06T22:25:26.015Z,23.68
2022-09-06T22:27:52.994Z,23.62
2022-09-06T22:30:25.066Z,23.48
2022-09-06T22:32:53.107Z,23.43
2022-09-06T22:35:20.334Z,23.44
2022-09-06T22:37:47.212Z,23.49
2022-09-06T22:40:14.201Z,23.47
2022-09-06T22:42:41.171Z,23.44
2022-09-06T22:45:08.454Z,23.43
2022-09-06T22:47:35.454Z,23.38
2022-09-06T22:50:02.388Z,23.36
2022-09-06T22:52:29.262Z,23.32
2022-09-06T22:54:56.167Z,23.29
2022-09-06T22:57:23.043Z,23.25
2022-09-06T22:59:49.889Z,23.23
2022-09-06T23:02:16.783Z,23.20
2022-09-06T23:04:43.699Z,23.17
2022-09-06T23:07:10.611Z,23.14
2022-09-06T23:09:37.536Z,23.12
2022-09-06T23:12:05.143Z,23.08
2022-09-06T23:14:32.014Z,23.02
2022-09-06T23:16:58.999Z,23.03
2022-09-06T23:19:25.918Z,23.00
2022-09-06T23:21:52.776Z,22.99
2022-09-06T23:24:19.748Z,22.96
2022-09-06T23:26:46.968Z,22.94
2022-09-06T23:29:14.291Z,22.90
2022-09-06T23:31:42.499Z,22.88
2022-09-06T23:34:09.476Z,22.86
2022-09-06T23:36:36.441Z,22.84
2022-09-06T23:39:03.396Z,22.82
2022-09-06T23:41:30.327Z,22.67
2022-09-06T23:43:57.498Z,22.78
2022-09-06T23:46:24.473Z,22.76
2022-09-06T23:48:51.400Z,22.74
2022-09-06T23:51:18.358Z,22.71
2022-09-06T23:53:45.393Z,22.67
2022-09-06T23:56:12.387Z,22.68
2022-09-06T23:58:39.372Z,22.66
